Time;durP1;ratioP1;P1;durP2;ratioP2;P2;SDS_P1;SDS_P2;PMS_P1;PMS_P2;Temp;Humidity;BMP_temperature;BMP_pressure;BME280_temperature;BME280_humidity;BME280_pressure;Samples;Min_cycle;Max_cycle;Signal;HPM_P1;HPM_P2
2021/06/26 00:00:32;;;;;;;10.68;7.35;;;;;;;27.01;65.41;100015.11;1776453;80;21146;-62
2021/06/26 00:03:05;;;;;;;13.88;7.40;;;;;;;26.92;65.71;100022.69;1828409;77;22778;-57
2021/06/26 00:05:38;;;;;;;8.48;7.28;;;;;;;26.85;65.77;100015.12;1832563;77;22174;-60
2021/06/26 00:08:11;;;;;;;9.90;7.00;;;;;;;26.82;65.85;100015.39;1845192;77;22170;-61
2021/06/26 00:10:58;;;;;;;10.35;8.03;;;;;;;26.76;65.89;100023.11;1726848;82;21143;-62
2021/06/26 00:13:31;;;;;;;10.68;7.28;;;;;;;26.79;65.94;100014.75;1822335;77;22569;-57
2021/06/26 00:16:05;;;;;;;8.73;7.03;;;;;;;26.82;65.86;100006.41;1814156;77;22170;-58
2021/06/26 00:18:38;;;;;;;9.58;7.75;;;;;;;26.82;65.78;100003.23;1817506;77;22261;-61
2021/06/26 00:21:11;;;;;;;15.43;7.45;;;;;;;26.83;65.75;100006.30;1807834;77;22658;-60
2021/06/26 00:23:44;;;;;;;11.22;7.05;;;;;;;26.83;65.69;100003.59;1818828;77;22242;-61
2021/06/26 00:26:18;;;;;;;8.45;7.55;;;;;;;26.83;65.68;100008.12;1808677;77;22623;-57
2021/06/26 00:29:04;;;;;;;10.23;6.92;;;;;;;26.79;65.62;100014.75;1706147;83;21178;-57
2021/06/26 00:31:37;;;;;;;9.65;7.50;;;;;;;26.77;65.61;100020.77;1834324;77;22175;-58
2021/06/26 00:34:10;;;;;;;9.15;7.40;;;;;;;26.68;65.79;100027.35;1794703;77;22212;-61
2021/06/26 00:36:43;;;;;;;10.75;7.50;;;;;;;26.67;65.82;100028.34;1808110;77;22190;-57
2021/06/26 00:39:16;;;;;;;8.83;7.47;;;;;;;26.65;65.79;100028.09;1812402;77;22198;-57
2021/06/26 00:41:50;;;;;;;9.63;7.65;;;;;;;26.61;65.93;100028.86;1827729;77;22683;-61
2021/06/26 00:44:35;;;;;;;10.08;7.83;;;;;;;26.51;66.17;100028.77;1764770;80;21177;-62
2021/06/26 00:47:12;;;;;;;10.55;7.55;;;;;;;26.46;66.56;100020.23;1820008;77;22697;-61
2021/06/26 00:49:45;;;;;;;9.33;7.83;;;;;;;26.53;66.36;100015.16;1823361;77;22165;-57
2021/06/26 00:52:31;;;;;;;10.68;7.42;;;;;;;26.42;66.64;100017.44;1791654;80;21574;-58
2021/06/26 00:55:06;;;;;;;12.03;7.95;;;;;;;26.41;66.85;100010.33;1901246;74;22709;-57
2021/06/26 00:57:43;;;;;;;10.50;7.47;;;;;;;26.45;66.85;100008.21;1830651;77;22670;-57
2021/06/26 01:00:30;;;;;;;10.70;8.13;;;;;;;26.56;66.43;100009.50;1778125;80;21131;-62
2021/06/26 01:03:04;;;;;;;11.85;7.65;;;;;;;26.48;66.59;99999.86;1822285;77;22210;-57
2021/06/26 01:05:56;;;;;;;8.65;7.75;;;;;;;26.46;66.69;99996.44;1834095;77;22208;-58
2021/06/26 01:08:47;;;;;;;14.65;7.40;;;;;;;26.54;66.41;99988.55;1803974;77;22177;-61
2021/06/26 01:11:34;;;;;;;10.03;7.10;;;;;;;26.52;66.30;99992.70;1695359;83;21130;-58
2021/06/26 01:14:08;;;;;;;12.23;7.87;;;;;;;26.47;66.57;99978.78;1810037;77;22661;-61
2021/06/26 01:16:41;;;;;;;11.60;7.92;;;;;;;26.42;66.59;99984.55;1795401;77;22162;-57
2021/06/26 01:19:14;;;;;;;9.63;7.90;;;;;;;26.41;66.57;99988.75;1795609;77;22698;-57
2021/06/26 01:21:59;;;;;;;10.15;7.25;;;;;;;26.34;66.65;99996.48;1757395;81;21248;-58
2021/06/26 01:24:38;;;;;;;9.78;7.60;;;;;;;26.36;66.68;99992.33;1806512;77;22230;-57
2021/06/26 01:27:12;;;;;;;9.18;7.17;;;;;;;26.35;66.71;99987.92;1837544;77;22124;-61
2021/06/26 01:29:50;;;;;;;10.68;7.62;;;;;;;26.32;66.76;99984.97;1805941;77;22223;-60
2021/06/26 01:32:38;;;;;;;12.18;7.72;;;;;;;26.29;66.74;99981.18;1736479;81;21237;-57
2021/06/26 01:35:11;;;;;;;10.68;8.05;;;;;;;26.34;66.72;99983.51;1828644;77;22645;-61
2021/06/26 01:37:44;;;;;;;13.58;8.68;;;;;;;26.33;66.63;99985.84;1818292;77;23156;-59
2021/06/26 01:40:20;;;;;;;12.13;7.47;;;;;;;26.33;66.58;99983.14;1829016;77;22155;-61
2021/06/26 01:43:10;;;;;;;10.72;7.75;;;;;;;26.27;66.54;99997.52;1789900;80;21137;-59
2021/06/26 01:45:43;;;;;;;10.95;7.50;;;;;;;26.32;66.50;99991.72;1818743;77;22198;-57
2021/06/26 01:48:16;;;;;;;12.50;7.53;;;;;;;26.34;66.48;99995.64;1815532;77;22179;-61
2021/06/26 01:51:03;;;;;;;12.68;7.55;;;;;;;26.31;66.40;100002.65;1761600;80;21269;-62
2021/06/26 01:53:36;;;;;;;10.38;8.10;;;;;;;26.33;66.31;99989.38;1820807;77;22202;-58
2021/06/26 01:56:12;;;;;;;10.55;8.20;;;;;;;26.33;66.24;99988.54;1808523;77;22186;-61
2021/06/26 01:58:45;;;;;;;12.95;9.23;;;;;;;26.30;66.28;99984.75;1801782;77;28063;-58
2021/06/26 02:01:19;;;;;;;12.10;7.60;;;;;;;26.31;66.26;99982.42;1834594;77;22168;-61
2021/06/26 02:03:52;;;;;;;14.35;8.25;;;;;;;26.28;66.24;99977.64;1817171;77;22652;-61
2021/06/26 02:06:25;;;;;;;12.25;7.95;;;;;;;26.27;66.30;99979.98;1834931;77;22586;-61
2021/06/26 02:09:11;;;;;;;9.58;7.50;;;;;;;26.22;66.24;99979.52;1763485;80;21627;-62
2021/06/26 02:11:44;;;;;;;11.03;7.33;;;;;;;26.25;66.32;99976.55;1820728;77;22182;-57
2021/06/26 02:14:17;;;;;;;11.10;8.15;;;;;;;26.26;66.35;99978.27;1811545;77;22242;-61
2021/06/26 02:17:03;;;;;;;11.10;8.35;;;;;;;26.22;66.32;99977.32;1761609;81;21114;-58
2021/06/26 02:19:36;;;;;;;13.65;7.95;;;;;;;26.20;66.39;99968.00;1807204;77;22198;-61
2021/06/26 02:22:09;;;;;;;9.70;7.65;;;;;;;26.17;66.51;99972.30;1827086;77;22174;-57
2021/06/26 02:24:42;;;;;;;11.10;7.80;;;;;;;26.17;66.54;99977.69;1806564;77;22606;-62
2021/06/26 02:27:28;;;;;;;10.60;8.05;;;;;;;26.14;66.59;99975.25;1760748;80;21304;-58
2021/06/26 02:30:05;;;;;;;11.40;8.30;;;;;;;26.13;66.70;99972.20;1819861;77;22754;-61
2021/06/26 02:32:39;;;;;;;11.78;9.10;;;;;;;26.09;66.88;99963.97;1821345;77;22187;-61
2021/06/26 02:35:12;;;;;;;12.58;8.18;;;;;;;26.09;66.86;99956.75;1841402;77;22599;-57
2021/06/26 02:37:45;;;;;;;9.53;8.30;;;;;;;26.09;66.88;99952.70;1832835;77;22581;-57
2021/06/26 02:40:18;;;;;;;12.82;8.65;;;;;;;26.05;67.01;99958.50;1840809;77;22506;-57
2021/06/26 02:42:51;;;;;;;10.05;8.55;;;;;;;26.03;67.11;99952.38;1831570;77;22587;-57
2021/06/26 02:45:37;;;;;;;10.38;8.83;;;;;;;25.99;67.27;99950.41;1761178;81;21154;-60
2021/06/26 02:48:10;;;;;;;13.50;8.60;;;;;;;26.03;67.35;99943.78;1818015;77;22628;-57
2021/06/26 02:50:44;;;;;;;10.88;7.62;;;;;;;26.06;67.36;99948.04;1814188;77;22182;-57
2021/06/26 02:53:30;;;;;;;10.32;8.48;;;;;;;26.07;67.38;99955.15;1699364;83;21145;-58
2021/06/26 02:56:23;;;;;;;12.03;8.83;;;;;;;26.17;67.32;99960.16;1838236;77;22200;-60
2021/06/26 02:58:56;;;;;;;11.85;8.58;;;;;;;26.19;67.37;99960.89;1815696;77;22637;-58
2021/06/26 03:01:42;;;;;;;12.28;9.75;;;;;;;26.18;67.31;99965.92;1761903;81;21324;-62
2021/06/26 03:04:15;;;;;;;12.82;9.18;;;;;;;26.28;67.32;99968.20;1822603;77;22177;-61
2021/06/26 03:06:48;;;;;;;13.70;9.45;;;;;;;26.34;67.25;99972.20;1834619;77;22172;-58
2021/06/26 03:09:22;;;;;;;13.88;9.18;;;;;;;26.37;67.20;99980.04;1811190;77;22182;-57
2021/06/26 03:11:55;;;;;;;12.30;8.98;;;;;;;26.38;67.29;99977.70;1822864;77;23323;-58
2021/06/26 03:14:47;;;;;;;14.25;9.45;;;;;;;26.43;67.19;99984.92;1794286;77;22673;-62
2021/06/26 03:17:20;;;;;;;13.88;8.80;;;;;;;26.46;67.27;99986.98;1835050;77;22143;-61
2021/06/26 03:19:53;;;;;;;13.03;9.38;;;;;;;26.45;67.25;99985.28;1804033;77;22202;-60
2021/06/26 03:22:27;;;;;;;11.03;8.85;;;;;;;26.48;67.28;99988.59;1819649;77;22731;-62
2021/06/26 03:25:00;;;;;;;12.55;8.90;;;;;;;26.55;67.19;99992.45;1817598;77;22203;-62
2021/06/26 03:27:33;;;;;;;10.88;8.93;;;;;;;26.64;67.06;99993.99;1801251;77;22191;-59
2021/06/26 03:30:07;;;;;;;12.18;9.53;;;;;;;26.68;67.22;100004.89;1828813;77;22571;-62
2021/06/26 03:32:53;;;;;;;13.83;10.05;;;;;;;26.71;67.08;100002.77;1773777;80;21171;-64
2021/06/26 03:35:46;;;;;;;11.35;9.95;;;;;;;26.73;67.35;100003.48;1826326;77;22684;-62
2021/06/26 03:38:19;;;;;;;11.90;9.90;;;;;;;26.78;67.41;100007.64;1825337;77;22249;-58
2021/06/26 03:40:53;;;;;;;14.13;9.63;;;;;;;26.83;67.38;100011.70;1820110;77;22167;-62
2021/06/26 03:43:39;;;;;;;12.40;10.70;;;;;;;26.86;67.37;100018.66;1772806;80;21166;-63
2021/06/26 03:46:12;;;;;;;10.72;9.30;;;;;;;27.00;67.36;100018.80;1834576;77;22176;-59
2021/06/26 03:48:45;;;;;;;11.93;9.58;;;;;;;27.07;67.06;100018.62;1818056;77;22158;-62
2021/06/26 03:51:19;;;;;;;13.75;9.48;;;;;;;27.14;67.06;100027.06;1832319;77;22598;-63
2021/06/26 03:54:05;;;;;;;10.15;9.15;;;;;;;27.17;66.87;100032.17;1769747;80;21167;-60
2021/06/26 03:56:38;;;;;;;10.48;9.48;;;;;;;27.29;66.68;100026.20;1834548;77;22204;-59
2021/06/26 03:59:11;;;;;;;11.48;9.63;;;;;;;27.36;66.40;100017.91;1813563;77;22230;-62
2021/06/26 04:01:45;;;;;;;12.78;10.25;;;;;;;27.46;66.58;100014.72;1845301;77;22116;-62
2021/06/26 04:04:31;;;;;;;11.25;9.30;;;;;;;27.51;66.37;100023.82;1796481;78;21830;-60
2021/06/26 04:07:05;;;;;;;16.07;10.28;;;;;;;27.66;66.16;100016.17;1833800;77;22116;-59
2021/06/26 04:09:38;;;;;;;10.40;9.40;;;;;;;27.75;66.32;100018.53;1807575;77;22625;-61
2021/06/26 04:12:23;;;;;;;14.83;9.95;;;;;;;27.80;66.16;100027.08;1761259;81;21161;-62
2021/06/26 04:14:56;;;;;;;11.63;9.70;;;;;;;27.95;65.99;100027.52;1821038;77;22191;-61
2021/06/26 04:17:30;;;;;;;11.60;9.88;;;;;;;28.04;65.69;100033.45;1834482;77;22164;-59
2021/06/26 04:20:16;;;;;;;14.05;9.75;;;;;;;28.11;65.75;100032.89;1760908;81;21312;-63
2021/06/26 04:22:49;;;;;;;11.30;9.85;;;;;;;28.20;65.93;100028.02;1815784;77;22193;-62
2021/06/26 04:25:23;;;;;;;11.00;9.38;;;;;;;28.25;65.67;100028.45;1826754;77;22189;-59
2021/06/26 04:28:09;;;;;;;11.73;9.63;;;;;;;28.37;65.27;100030.98;1847743;77;22184;-61
2021/06/26 04:30:55;;;;;;;14.35;10.35;;;;;;;28.37;65.44;100037.75;1773408;80;21222;-60
2021/06/26 04:33:48;;;;;;;13.00;9.78;;;;;;;28.50;65.40;100037.81;1818472;77;22669;-59
2021/06/26 04:36:21;;;;;;;14.00;10.18;;;;;;;28.60;65.55;100035.59;1852954;77;22131;-61
2021/06/26 04:38:54;;;;;;;11.85;10.18;;;;;;;28.72;65.34;100029.52;1815849;77;22163;-60
2021/06/26 04:41:40;;;;;;;10.25;9.25;;;;;;;28.81;64.98;100029.19;1762009;81;21146;-62
2021/06/26 04:44:13;;;;;;;17.32;9.83;;;;;;;28.99;64.79;100017.09;1800209;77;22183;-59
2021/06/26 04:46:46;;;;;;;14.33;10.40;;;;;;;29.15;64.38;100009.17;1834285;77;22168;-59
2021/06/26 04:49:32;;;;;;;14.25;9.98;;;;;;;29.20;64.17;100012.29;1755689;80;21648;-62
2021/06/26 04:52:06;;;;;;;10.23;9.18;;;;;;;29.41;63.96;100006.30;1816793;77;22178;-60
2021/06/26 04:54:39;;;;;;;12.13;9.18;;;;;;;29.54;63.29;100013.59;1788110;77;22660;-60
2021/06/26 04:57:25;;;;;;;11.15;9.20;;;;;;;29.63;63.03;100013.17;1738933;81;21256;-60
2021/06/26 04:59:58;;;;;;;10.00;8.80;;;;;;;29.80;62.45;100016.95;1808819;77;22182;-62
2021/06/26 05:02:32;;;;;;;14.00;10.25;;;;;;;29.88;62.05;100014.81;1820362;77;22171;-61
2021/06/26 05:05:17;;;;;;;10.00;8.88;;;;;;;29.93;61.70;100019.27;1757740;81;21113;-60
2021/06/26 05:07:51;;;;;;;14.30;9.48;;;;;;;30.08;61.13;100012.31;1825249;77;22155;-60
2021/06/26 05:10:24;;;;;;;14.13;9.08;;;;;;;30.20;60.64;100018.88;1834513;77;22168;-61
2021/06/26 05:12:57;;;;;;;10.98;8.45;;;;;;;30.33;60.41;100019.34;1830377;77;22179;-60
2021/06/26 05:15:30;;;;;;;11.60;8.98;;;;;;;30.53;59.75;100021.85;1845435;77;22172;-61
2021/06/26 05:18:04;;;;;;;11.53;8.08;;;;;;;30.67;59.52;100019.13;1828174;77;22242;-60
2021/06/26 05:20:39;;;;;;;14.03;8.95;;;;;;;30.76;59.30;100020.86;1852986;77;22622;-62
2021/06/26 05:23:22;;;;;;;14.47;8.83;;;;;;;30.90;58.83;100012.66;1826637;77;22163;-60
2021/06/26 05:26:09;;;;;;;9.75;8.43;;;;;;;30.90;58.83;100012.66;1760188;81;21182;-62
2021/06/26 05:28:43;;;;;;;14.05;8.95;;;;;;;31.18;58.03;99996.66;1811779;77;22209;-61
2021/06/26 05:31:16;;;;;;;11.68;7.78;;;;;;;31.35;57.68;99998.98;1834228;77;22196;-60
2021/06/26 05:33:49;;;;;;;9.70;8.30;;;;;;;31.55;57.49;99994.95;1812080;77;22657;-61
2021/06/26 05:36:23;;;;;;;18.52;9.40;;;;;;;31.61;57.52;99990.70;1834159;77;22603;-58
2021/06/26 05:38:56;;;;;;;11.85;8.40;;;;;;;31.83;56.68;99996.05;1809481;77;22222;-58
2021/06/26 05:41:29;;;;;;;11.78;7.45;;;;;;;31.98;55.78;99992.69;1833839;77;22156;-58
2021/06/26 05:44:15;;;;;;;12.80;8.20;;;;;;;32.03;55.29;100000.67;1741245;81;21189;-62
2021/06/26 05:46:48;;;;;;;15.75;7.50;;;;;;;32.21;55.23;99991.51;1836603;77;22542;-58
2021/06/26 05:49:21;;;;;;;12.93;8.08;;;;;;;32.35;54.60;99989.17;1811324;77;22226;-61
2021/06/26 05:52:08;;;;;;;10.03;7.42;;;;;;;32.38;54.59;99986.94;1760614;80;21132;-58
2021/06/26 05:54:41;;;;;;;11.25;7.67;;;;;;;32.59;54.50;99980.95;1824645;77;22166;-59
2021/06/26 05:57:14;;;;;;;11.28;7.03;;;;;;;32.73;53.46;99979.39;1830030;77;22159;-62
2021/06/26 05:59:47;;;;;;;13.13;7.87;;;;;;;32.95;53.08;99962.50;1823123;77;22174;-61
2021/06/26 06:02:35;;;;;;;8.23;6.90;;;;;;;33.02;53.04;99956.69;1751179;81;21135;-59
2021/06/26 06:05:09;;;;;;;9.45;7.30;;;;;;;33.22;52.33;99955.75;1832894;77;23244;-59
2021/06/26 06:07:42;;;;;;;9.38;7.25;;;;;;;33.44;52.54;99951.94;1833678;77;23174;-61
2021/06/26 06:10:29;;;;;;;7.60;6.62;;;;;;;33.66;51.81;99949.73;1760429;80;21293;-61
2021/06/26 06:13:02;;;;;;;10.72;7.33;;;;;;;33.88;51.61;99930.83;1829276;77;22167;-60
2021/06/26 06:15:35;;;;;;;8.73;6.78;;;;;;;34.04;51.01;99932.61;1830733;77;22163;-59
2021/06/26 06:18:09;;;;;;;11.68;7.30;;;;;;;34.25;50.72;99931.91;1827726;77;22799;-61
2021/06/26 06:20:43;;;;;;;14.05;7.20;;;;;;;34.43;49.84;99928.48;1834538;77;22179;-59
2021/06/26 06:23:16;;;;;;;13.80;6.87;;;;;;;34.53;49.13;99924.47;1826143;77;22665;-59
2021/06/26 06:26:01;;;;;;;11.83;6.67;;;;;;;34.64;48.32;99934.11;1761405;80;21151;-60
2021/06/26 06:28:34;;;;;;;39.75;8.38;;;;;;;34.75;47.33;99924.59;1821890;77;22238;-61
2021/06/26 06:31:08;;;;;;;13.08;6.97;;;;;;;34.93;47.86;99926.06;1834563;77;22179;-58
2021/06/26 06:34:00;;;;;;;19.23;6.58;;;;;;;35.10;47.07;99919.93;1821986;77;22259;-58
2021/06/26 06:36:33;;;;;;;17.05;6.58;;;;;;;35.19;46.21;99919.29;1822347;77;22574;-61
2021/06/26 06:46:27;;;;;;;12.37;6.55;;;;;;;35.97;45.39;99914.05;1852902;77;22191;-57
2021/06/26 06:49:00;;;;;;;16.27;7.05;;;;;;;36.17;44.56;99916.11;1816171;77;22175;-57
2021/06/26 06:51:33;;;;;;;13.40;6.25;;;;;;;36.29;43.36;99913.12;1832282;77;22180;-62
2021/06/26 06:54:07;;;;;;;13.48;6.65;;;;;;;36.39;42.33;99911.42;1813932;77;22186;-61
2021/06/26 06:56:40;;;;;;;11.33;6.25;;;;;;;36.48;42.84;99906.66;1852882;77;22179;-60
2021/06/26 06:59:13;;;;;;;14.53;6.78;;;;;;;36.62;42.00;99914.43;1813146;77;23204;-61
2021/06/26 07:01:58;;;;;;;18.30;6.92;;;;;;;36.80;42.74;99913.89;1761509;81;21155;-61
2021/06/26 07:04:32;;;;;;;13.28;6.58;;;;;;;37.04;42.29;99902.13;1793901;77;22691;-61
2021/06/26 07:07:05;;;;;;;14.63;7.12;;;;;;;37.22;42.09;99908.92;1832581;77;22128;-61
2021/06/26 07:09:50;;;;;;;11.28;6.37;;;;;;;37.26;41.35;99907.46;1764639;80;21147;-62
2021/06/26 07:12:23;;;;;;;12.43;7.12;;;;;;;37.31;41.68;99912.64;1801319;77;22161;-61
2021/06/26 07:14:56;;;;;;;14.45;6.97;;;;;;;37.49;41.25;99902.51;1803139;77;22213;-58
2021/06/26 07:17:30;;;;;;;13.18;6.50;;;;;;;37.71;41.73;99900.94;1853034;77;22128;-61
2021/06/26 07:20:16;;;;;;;12.93;7.12;;;;;;;37.95;41.85;99902.80;1793017;80;21320;-61
2021/06/26 07:22:49;;;;;;;15.32;7.28;;;;;;;38.36;40.55;99904.45;1831944;77;22155;-58
2021/06/26 07:25:23;;;;;;;12.93;7.90;;;;;;;38.48;40.26;99907.92;1819554;77;22186;-58
2021/06/26 07:27:56;;;;;;;14.35;8.18;;;;;;;38.50;39.89;99915.42;1848881;77;22183;-58
2021/06/26 07:30:29;;;;;;;17.35;10.50;;;;;;;38.53;39.47;99919.13;1821427;77;22160;-62
2021/06/26 07:33:14;;;;;;;17.05;9.83;;;;;;;38.59;39.33;99914.69;1793022;80;21138;-62
2021/06/26 07:35:48;;;;;;;17.05;11.00;;;;;;;38.62;39.73;99912.34;1834558;77;22164;-57
2021/06/26 07:38:22;;;;;;;13.15;8.45;;;;;;;38.65;39.34;99919.30;1824927;77;22166;-62
2021/06/26 07:41:08;;;;;;;12.75;7.62;;;;;;;38.65;39.68;99925.66;1731739;83;21179;-58
2021/06/26 07:43:42;;;;;;;14.47;7.40;;;;;;;38.72;39.52;99925.63;1812753;77;22589;-57
2021/06/26 07:46:16;;;;;;;18.20;7.78;;;;;;;38.74;39.32;99922.68;1820153;77;22170;-60
2021/06/26 07:48:49;;;;;;;13.20;7.25;;;;;;;38.85;39.12;99923.91;1818174;77;22181;-62
2021/06/26 07:51:22;;;;;;;11.18;7.22;;;;;;;39.13;39.27;99915.36;1832416;77;22147;-58
2021/06/26 07:54:08;;;;;;;11.68;6.47;;;;;;;39.33;38.77;99930.94;1766225;80;21192;-58
2021/06/26 07:56:41;;;;;;;14.33;6.87;;;;;;;39.63;37.55;99916.05;1852910;77;22151;-64
2021/06/26 07:59:15;;;;;;;18.90;7.47;;;;;;;39.65;37.24;99916.66;1802733;77;22661;-63
2021/06/26 08:02:00;;;;;;;17.90;8.15;;;;;;;39.70;37.81;99922.35;1761784;81;21738;-59
2021/06/26 08:04:34;;;;;;;33.58;16.35;;;;;;;40.13;37.14;99916.65;1808525;77;22171;-57
2021/06/26 08:07:07;;;;;;;24.85;12.33;;;;;;;40.32;36.19;99911.19;1830660;77;22627;-57
2021/06/26 08:09:40;;;;;;;21.82;10.15;;;;;;;40.37;36.37;99913.28;1824652;77;22190;-61
2021/06/26 08:12:15;;;;;;;16.60;8.95;;;;;;;40.60;36.03;99922.26;1834563;77;22180;-61
2021/06/26 08:14:48;;;;;;;12.93;7.50;;;;;;;40.71;35.99;99915.98;1805049;77;22174;-61
2021/06/26 08:17:36;;;;;;;14.93;7.05;;;;;;;40.70;35.71;99917.61;1731499;82;21214;-58
2021/06/26 08:20:10;;;;;;;14.80;6.85;;;;;;;40.67;35.78;99923.03;1852905;77;22210;-61
2021/06/26 08:22:44;;;;;;;14.00;6.75;;;;;;;40.83;36.35;99925.74;1833408;77;22708;-59
2021/06/26 08:25:30;;;;;;;11.97;6.58;;;;;;;40.99;35.75;99928.92;1761574;80;21582;-62
2021/06/26 08:28:04;;;;;;;14.63;7.03;;;;;;;40.97;34.97;99931.93;1847202;77;22186;-57
2021/06/26 08:30:37;;;;;;;11.10;6.33;;;;;;;40.93;34.70;99929.84;1834599;77;22717;-61
2021/06/26 08:33:10;;;;;;;16.97;5.87;;;;;;;40.87;35.02;99937.14;1819002;77;22271;-57
2021/06/26 08:35:58;;;;;;;12.40;6.10;;;;;;;40.93;34.66;99933.47;1739730;81;21099;-61
2021/06/26 08:38:32;;;;;;;13.93;6.75;;;;;;;40.91;34.06;99932.00;1822533;77;22170;-61
2021/06/26 08:41:05;;;;;;;17.05;6.25;;;;;;;41.11;34.38;99936.77;1833866;77;22622;-61
2021/06/26 08:43:52;;;;;;;13.08;6.58;;;;;;;41.18;33.94;99937.53;1779798;80;21149;-61
2021/06/26 08:46:26;;;;;;;12.03;6.62;;;;;;;41.23;33.51;99936.81;1822538;77;22670;-62
2021/06/26 08:48:59;;;;;;;19.85;6.78;;;;;;;41.15;34.10;99939.89;1816237;77;22230;-58
2021/06/26 08:51:45;;;;;;;15.53;6.42;;;;;;;41.31;32.33;99939.78;1761843;80;21545;-58
2021/06/26 08:54:19;;;;;;;11.38;6.08;;;;;;;41.54;32.82;99932.16;1829687;77;22202;-62
2021/06/26 08:56:52;;;;;;;18.00;6.22;;;;;;;41.67;32.61;99935.28;1834532;77;22607;-57
2021/06/26 08:59:39;;;;;;;15.78;6.42;;;;;;;41.71;32.55;99932.35;1767195;80;21181;-61
2021/06/26 09:02:22;;;;;;;11.95;5.55;;;;;;;42.02;31.50;99933.15;1810939;77;22178;-61
2021/06/26 09:04:56;;;;;;;16.62;6.83;;;;;;;42.33;32.51;99930.28;1808372;77;22222;-57
2021/06/26 09:07:38;;;;;;;13.15;5.72;;;;;;;42.59;32.00;99928.97;1829880;77;22511;-58
2021/06/26 09:10:17;;;;;;;9.78;5.00;;;;;;;42.76;31.79;99924.91;1834340;77;22195;-62
2021/06/26 09:12:50;;;;;;;14.45;6.35;;;;;;;42.99;31.65;99923.18;1831014;77;22124;-61
2021/06/26 09:15:28;;;;;;;18.02;7.28;;;;;;;42.97;30.74;99921.20;1834571;77;22555;-57
2021/06/26 09:18:17;;;;;;;14.63;7.08;;;;;;;42.87;30.61;99920.45;1784923;80;21646;-62
2021/06/26 09:20:53;;;;;;;14.35;7.33;;;;;;;42.90;31.02;99913.05;1834539;77;22106;-58
2021/06/26 09:23:45;;;;;;;12.95;6.10;;;;;;;42.83;31.03;99902.66;1825460;77;22242;-58
2021/06/26 09:26:41;;;;;;;12.95;6.37;;;;;;;43.05;31.26;99911.69;1821239;77;22217;-61
2021/06/26 09:29:17;;;;;;;12.55;6.00;;;;;;;43.42;30.57;99905.77;1812377;77;22644;-62
2021/06/26 09:32:06;;;;;;;9.00;5.42;;;;;;;43.74;30.88;99911.31;1761790;81;21111;-61
2021/06/26 09:34:44;;;;;;;9.90;5.60;;;;;;;43.95;30.10;99906.94;1796886;77;22322;-61
2021/06/26 09:37:26;;;;;;;29.85;7.17;;;;;;;44.11;29.76;99910.29;1852884;77;22285;-61
2021/06/26 09:40:01;;;;;;;15.98;6.85;;;;;;;44.03;28.86;99907.08;1820426;77;22181;-61
2021/06/26 09:42:37;;;;;;;11.50;5.20;;;;;;;44.06;29.21;99912.16;1848133;77;22132;-61
2021/06/26 09:45:11;;;;;;;14.23;5.00;;;;;;;44.16;28.79;99907.30;1832614;77;22258;-58
2021/06/26 09:47:45;;;;;;;11.97;5.70;;;;;;;44.15;28.75;99903.71;1833250;77;22117;-58
2021/06/26 09:50:35;;;;;;;12.63;4.62;;;;;;;44.06;28.66;99912.16;1746952;81;21115;-58
2021/06/26 09:53:09;;;;;;;8.10;4.65;;;;;;;43.97;28.60;99902.84;1846071;77;22324;-58
2021/06/26 09:55:46;;;;;;;12.65;4.97;;;;;;;43.96;28.87;99901.69;1812988;77;22206;-58
2021/06/26 09:58:32;;;;;;;11.38;4.70;;;;;;;43.92;29.04;99906.91;1769265;80;21308;-62
2021/06/26 10:01:04;;;;;;;12.35;4.53;;;;;;;43.89;28.74;99894.13;1832697;77;22567;-58
2021/06/26 10:03:38;;;;;;;8.38;4.67;;;;;;;43.83;28.34;99884.87;1821057;77;22151;-61
2021/06/26 10:06:11;;;;;;;9.68;4.67;;;;;;;43.96;28.87;99885.92;1834476;77;22314;-62
2021/06/26 10:08:45;;;;;;;11.63;4.75;;;;;;;44.36;28.79;99879.03;1819510;77;22179;-62
2021/06/26 10:11:19;;;;;;;11.97;3.72;;;;;;;44.71;28.44;99873.15;1821180;77;22123;-62
2021/06/26 10:13:52;;;;;;;11.30;4.72;;;;;;;45.05;28.12;99869.94;1835253;77;22158;-62
2021/06/26 10:16:25;;;;;;;11.12;4.45;;;;;;;45.22;27.27;99854.02;1837555;77;22125;-61
2021/06/26 10:19:00;;;;;;;9.73;4.03;;;;;;;45.41;26.96;99853.65;1816189;77;22155;-58
2021/06/26 10:21:34;;;;;;;8.45;4.05;;;;;;;45.68;26.66;99856.41;1831452;77;22129;-58
2021/06/26 10:24:14;;;;;;;8.90;4.33;;;;;;;45.84;26.24;99850.41;1814326;77;22337;-58
2021/06/26 10:26:48;;;;;;;11.43;4.33;;;;;;;46.00;26.78;99849.95;1834405;77;22129;-58
2021/06/26 10:32:12;;;;;;;9.23;4.03;;;;;;;46.23;26.06;99856.25;1834390;77;22129;-58
2021/06/26 10:34:50;;;;;;;13.08;4.55;;;;;;;46.29;24.83;99846.83;1805825;77;22170;-58
2021/06/26 10:37:36;;;;;;;19.48;4.80;;;;;;;46.31;24.92;99855.73;1761265;81;21202;-58
2021/06/26 10:40:54;;;;;;;9.85;4.03;;;;;;;46.26;25.09;99856.25;1825882;77;22231;-58
2021/06/26 10:43:29;;;;;;;8.40;3.62;;;;;;;46.30;25.34;99859.62;1822484;77;22147;-57
2021/06/26 10:46:11;;;;;;;10.70;3.60;;;;;;;46.44;25.77;99855.83;1834428;77;22145;-57
2021/06/26 10:48:59;;;;;;;10.95;3.80;;;;;;;46.65;24.81;99860.06;1816099;77;22167;-57
2021/06/26 10:51:35;;;;;;;9.10;3.67;;;;;;;46.78;24.77;99861.52;1834383;77;22520;-58
2021/06/26 10:54:12;;;;;;;13.48;3.90;;;;;;;47.08;24.43;99864.13;1832046;77;22328;-58
2021/06/26 10:56:47;;;;;;;10.80;4.20;;;;;;;47.38;23.95;99861.11;1834413;77;22549;-57
2021/06/26 10:59:21;;;;;;;12.60;5.05;;;;;;;47.41;24.41;99857.77;1791933;77;28144;-57
2021/06/26 11:02:07;;;;;;;11.60;4.67;;;;;;;47.40;24.25;99858.06;1764712;81;21174;-58
2021/06/26 11:04:46;;;;;;;6.90;3.12;;;;;;;47.59;23.76;99856.98;1812657;78;22125;-57
2021/06/26 11:07:19;;;;;;;12.28;3.85;;;;;;;47.65;23.59;99857.26;1851681;77;22257;-58
2021/06/26 11:09:52;;;;;;;13.28;3.70;;;;;;;47.74;23.42;99856.13;1813133;77;22166;-58
2021/06/26 11:12:25;;;;;;;9.75;3.50;;;;;;;47.84;22.54;99858.05;1834355;77;22120;-57
2021/06/26 11:14:58;;;;;;;9.38;3.80;;;;;;;47.81;22.71;99858.07;1812091;77;22172;-57
2021/06/26 11:17:45;;;;;;;11.90;4.33;;;;;;;47.83;22.68;99863.35;1819409;77;23144;-58
2021/06/26 11:20:30;;;;;;;9.35;2.95;;;;;;;47.56;22.26;99859.72;1761607;81;21178;-58
2021/06/26 11:23:04;;;;;;;9.23;3.95;;;;;;;47.06;22.65;99853.81;1806897;77;22163;-61
2021/06/26 11:25:43;;;;;;;14.00;3.95;;;;;;;46.79;23.07;99856.23;1846990;77;22507;-57
2021/06/26 11:28:17;;;;;;;12.95;3.40;;;;;;;46.45;23.75;99851.08;1826014;77;22272;-58
2021/06/26 11:31:03;;;;;;;12.93;4.15;;;;;;;46.33;23.60;99851.28;1761747;81;21146;-61
2021/06/26 11:33:39;;;;;;;13.62;3.42;;;;;;;46.40;24.90;99844.92;1832607;77;22099;-61
2021/06/26 11:36:13;;;;;;;9.53;3.15;;;;;;;46.52;24.75;99846.11;1825607;77;22088;-58
2021/06/26 11:38:49;;;;;;;14.75;3.85;;;;;;;46.71;23.99;99843.67;1817647;77;22123;-60
2021/06/26 11:41:34;;;;;;;10.43;3.70;;;;;;;46.81;23.35;99847.59;1741046;81;21165;-58
2021/06/26 11:44:07;;;;;;;12.20;3.98;;;;;;;46.91;24.00;99843.48;1814268;77;22119;-58
2021/06/26 11:46:40;;;;;;;13.60;3.67;;;;;;;47.08;24.14;99841.84;1834188;77;22105;-62
2021/06/26 11:49:47;;;;;;;7.25;3.42;;;;;;;47.19;23.24;99837.97;1768529;80;21199;-59
2021/06/26 11:52:20;;;;;;;9.10;3.37;;;;;;;47.20;24.03;99838.78;1834612;77;22093;-60
2021/06/26 11:55:00;;;;;;;12.03;3.33;;;;;;;47.33;23.50;99829.92;1821721;77;22126;-60
2021/06/26 11:57:33;;;;;;;15.35;4.22;;;;;;;47.52;23.72;99837.70;1831741;77;22074;-57
2021/06/26 12:00:08;;;;;;;9.05;4.15;;;;;;;47.52;22.64;99825.16;1826647;77;22136;-57
2021/06/26 12:02:54;;;;;;;14.55;4.70;;;;;;;47.42;22.86;99827.41;1791831;80;21177;-59
2021/06/26 12:05:27;;;;;;;11.15;3.95;;;;;;;47.29;22.89;99818.20;1834443;77;22116;-61
2021/06/26 12:08:05;;;;;;;12.07;3.80;;;;;;;47.06;23.41;99816.22;1821898;77;23164;-58
2021/06/26 12:10:38;;;;;;;7.87;4.00;;;;;;;46.91;23.84;99815.08;1852843;77;22073;-61
2021/06/26 12:13:12;;;;;;;10.28;4.00;;;;;;;46.86;24.44;99801.72;1845306;77;22170;-58
2021/06/26 12:15:45;;;;;;;7.47;3.25;;;;;;;46.98;24.05;99804.23;1834500;77;22120;-58
2021/06/26 12:18:18;;;;;;;9.88;3.62;;;;;;;47.06;24.06;99800.91;1811992;77;22148;-61
2021/06/26 12:21:08;;;;;;;8.75;3.45;;;;;;;47.10;24.13;99807.59;1761691;81;21178;-62